« Back
NWS Peachtree City, Ga » Text Product » MCN Terminal Aerodrome Forecast


Printer-friendly Version
Current Version              Previous Versions:   1  2  3  4  5  6  7  8  9  

Terminal Aerodrome Forecast

072
FTUS42 KFFC 301700
TAFMCN
TAF
KMCN 301729Z 3018/3118 03005KT P6SM SCT045 SCT250
     FM310300 08003KT P6SM SCT250
     FM311600 11005KT P6SM SCT040=



USA.gov is the U.S. government's official web portal to all federal, state and local government web resources and services.